KRFD/RFD METAR and TAF weather

Enter ICAO airport designator
Station Type Date Time Source
KRFD METAR 2019/07/20 19:54 UTC NOAA

KRFD 201954Z 22008KT 10SM FEW040 SCT250 35/26 A2985 RMK AO2 LTG DSNT N SLP099 T03500256 $


Station Type Date Time Source
KRFD Decoded METAR 2019/07/20 19:54 UTC NOAA

GREATER ROCKFORD AIRPORT, IL, United States (KRFD) 42-12N 89-06W 221M
Jul 20, 2019 - 03:54 PM EDT / 2019.07.20 1954 UTC
Wind: from the SW (220 degrees) at 9 MPH (8 KT):0
Visibility: 10 mile(s):0
Sky conditions: partly cloudy
Weather: Lightning observed
Temperature: 95.0 F (35.0 C)
Heat index: 111.4 F (44.1 C):1
Dew Point: 78.1 F (25.6 C)
Relative Humidity: 58%
Pressure (altimeter): 29.85 in. Hg (1010 hPa)
ob: KRFD 201954Z 22008KT 10SM FEW040 SCT250 35/26 A2985 RMK AO2 LTG DSNT N SLP099 T03500256
cycle: 20

Station Type Date Time Source
KRFD TAF 2019/07/20 18:51 UTC NOAA

TAF KRFD 201741Z 2018/2118 22011G18KT P6SM SCT030 SCT250
FM202100 01015G24KT P6SM VCTS SCT030CB BKN100
TEMPO 2021/2024 02020G34KT 2SM TSRA OVC035CB
FM210000 03009KT P6SM SCT035 BKN100
FM210300 02009KT P6SM VCTS SCT035CB BKN100
FM210600 02015G25KT 3SM TSRA BR BKN035CB OVC080
FM211000 05010KT P6SM -SHRA SCT010 OVC020
FM211700 05010KT P6SM SCT025 BKN100

Example: see airport list